createdAt,value
2019-02-25T00:00:30.830Z,100171.36
2019-02-25T00:03:01.709Z,100174.22
2019-02-25T00:05:33.198Z,100172.63
2019-02-25T00:08:04.145Z,100178.81
2019-02-25T00:10:35.021Z,100172.70
2019-02-25T00:13:06.026Z,100173.27
2019-02-25T00:15:37.036Z,100173.58
2019-02-25T00:18:08.031Z,100177.11
2019-02-25T00:20:38.913Z,100176.47
2019-02-25T00:23:09.765Z,100171.72
2019-02-25T00:25:40.716Z,100177.17
2019-02-25T00:28:11.572Z,100172.80
2019-02-25T00:30:42.466Z,100184.11
2019-02-25T00:33:13.321Z,100181.95
2019-02-25T00:35:44.192Z,100176.70
2019-02-25T00:38:15.063Z,100182.33
2019-02-25T00:40:45.990Z,100180.28
2019-02-25T00:43:16.852Z,100187.58
2019-02-25T00:45:47.880Z,100190.94
2019-02-25T00:48:18.726Z,100197.42
2019-02-25T00:50:49.729Z,100198.97
2019-02-25T00:53:20.591Z,100193.55
2019-02-25T00:55:51.453Z,100198.66
2019-02-25T00:58:22.304Z,100206.69
2019-02-25T01:00:53.249Z,100203.34
2019-02-25T01:03:24.135Z,100207.84
2019-02-25T01:05:55.062Z,100217.65
2019-02-25T01:08:25.926Z,100217.50
2019-02-25T01:10:56.855Z,100217.17
2019-02-25T01:13:27.909Z,100217.97
2019-02-25T01:15:58.754Z,100224.50
2019-02-25T01:18:29.607Z,100221.61
2019-02-25T01:21:00.463Z,100221.33
2019-02-25T01:23:31.357Z,100219.47
2019-02-25T01:26:02.221Z,100220.20
2019-02-25T01:28:33.107Z,100208.94
2019-02-25T01:31:04.014Z,100209.19
2019-02-25T01:33:34.964Z,100211.97
2019-02-25T01:36:05.846Z,100219.81
2019-02-25T01:38:36.707Z,100222.32
2019-02-25T01:41:07.569Z,100215.47
2019-02-25T01:43:38.459Z,100215.87
2019-02-25T01:46:09.323Z,100216.13
2019-02-25T01:48:40.280Z,100216.52
2019-02-25T01:51:11.194Z,100217.80
2019-02-25T01:53:41.997Z,100207.11
2019-02-25T01:56:12.831Z,100209.52
2019-02-25T01:58:43.702Z,100213.64
2019-02-25T02:01:14.557Z,100215.39
2019-02-25T02:03:45.400Z,100214.63
2019-02-25T02:06:16.297Z,100210.77
2019-02-25T02:08:47.155Z,100204.23
2019-02-25T02:11:18.011Z,100213.57
2019-02-25T02:13:48.890Z,100207.80
2019-02-25T02:16:19.745Z,100200.66
2019-02-25T02:18:50.608Z,100203.42
2019-02-25T02:21:21.471Z,100196.24
2019-02-25T02:23:52.310Z,100201.34
2019-02-25T02:26:23.168Z,100196.64
2019-02-25T02:28:54.030Z,100188.58
2019-02-25T02:31:24.887Z,100193.80
2019-02-25T02:33:55.754Z,100198.09
2019-02-25T02:36:26.642Z,100197.30
2019-02-25T02:38:57.503Z,100195.41
2019-02-25T02:41:28.360Z,100190.85
2019-02-25T02:43:59.213Z,100197.20
2019-02-25T02:46:41.744Z,100195.77
2019-02-25T02:49:12.587Z,100187.09
2019-02-25T02:51:43.469Z,100185.02
2019-02-25T02:54:14.326Z,100186.22
2019-02-25T02:56:45.176Z,100176.78
2019-02-25T02:59:16.041Z,100171.86
2019-02-25T03:01:47.120Z,100176.64
2019-02-25T03:04:17.963Z,100179.48
2019-02-25T03:06:48.842Z,100184.30
2019-02-25T03:09:19.696Z,100180.47
2019-02-25T03:11:50.644Z,100167.53
2019-02-25T03:14:21.488Z,100166.10
2019-02-25T03:16:52.328Z,100168.66
2019-02-25T03:19:23.194Z,100161.22
2019-02-25T03:21:54.048Z,100164.25
2019-02-25T03:24:24.921Z,100166.72
2019-02-25T03:26:55.770Z,100173.03
2019-02-25T03:29:26.633Z,100170.80
2019-02-25T03:31:57.498Z,100170.73
2019-02-25T03:34:28.372Z,100175.33
2019-02-25T03:36:59.234Z,100176.20
2019-02-25T03:39:30.104Z,100181.02
2019-02-25T03:42:01.030Z,100182.77
2019-02-25T03:44:31.896Z,100181.27
2019-02-25T03:47:02.796Z,100184.62
2019-02-25T03:49:33.680Z,100179.48
2019-02-25T03:52:04.608Z,100179.88
2019-02-25T03:54:35.495Z,100171.89
2019-02-25T03:57:06.364Z,100180.42
2019-02-25T03:59:37.403Z,100179.13
2019-02-25T04:02:08.423Z,100178.55
2019-02-25T04:04:39.409Z,100183.50
2019-02-25T04:07:10.371Z,100183.70
2019-02-25T04:09:41.221Z,100185.70
2019-02-25T04:12:12.079Z,100185.55
2019-02-25T04:14:42.922Z,100193.60
2019-02-25T04:17:13.775Z,100191.33
2019-02-25T04:19:44.630Z,100186.41
2019-02-25T04:22:15.573Z,100192.78
2019-02-25T04:24:46.440Z,100191.86
2019-02-25T04:27:17.287Z,100189.76
2019-02-25T04:29:48.157Z,100186.56
2019-02-25T04:32:19.022Z,100191.81
2019-02-25T04:34:49.885Z,100187.59
2019-02-25T04:37:20.733Z,100186.31
2019-02-25T04:39:51.579Z,100203.68
2019-02-25T04:42:22.591Z,100202.73
2019-02-25T04:44:53.451Z,100207.51
2019-02-25T04:47:24.316Z,100204.60
2019-02-25T04:49:55.236Z,100210.09
2019-02-25T04:52:26.127Z,100207.55
2019-02-25T04:54:56.979Z,100207.91
2019-02-25T04:57:28.176Z,100215.80
2019-02-25T04:59:59.205Z,100217.16
2019-02-25T05:02:30.067Z,100215.95
2019-02-25T05:05:00.931Z,100221.13
2019-02-25T05:07:31.801Z,100209.66
2019-02-25T05:10:02.735Z,100206.76
2019-02-25T05:12:33.606Z,100206.33
2019-02-25T05:15:05.533Z,100191.81
2019-02-25T05:17:36.378Z,100184.95
2019-02-25T05:20:08.270Z,100179.17
2019-02-25T05:22:39.250Z,100181.55
2019-02-25T05:25:11.883Z,100180.55
2019-02-25T05:27:42.743Z,100187.25
2019-02-25T05:30:17.385Z,100183.64
2019-02-25T05:32:48.246Z,100184.77
2019-02-25T05:35:19.126Z,100180.80
2019-02-25T05:37:49.998Z,100172.08
2019-02-25T05:40:21.327Z,100177.78
2019-02-25T05:42:52.235Z,100177.31
2019-02-25T05:45:23.222Z,100181.41
2019-02-25T05:47:55.299Z,100175.36
2019-02-25T05:50:26.131Z,100174.41
2019-02-25T05:52:57.019Z,100169.98
2019-02-25T05:55:27.925Z,100168.39
2019-02-25T05:57:58.763Z,100160.66
2019-02-25T06:00:33.564Z,100169.30
2019-02-25T06:03:04.438Z,100176.16
2019-02-25T06:05:35.329Z,100179.63
2019-02-25T06:08:06.349Z,100187.02
2019-02-25T06:10:38.655Z,100183.98
2019-02-25T06:13:09.519Z,100183.44
2019-02-25T06:15:40.361Z,100188.89
2019-02-25T06:18:11.252Z,100190.11
2019-02-25T06:20:42.309Z,100197.16
2019-02-25T06:23:13.206Z,100195.88
2019-02-25T06:25:44.345Z,100198.68
2019-02-25T06:28:15.237Z,100195.16
2019-02-25T06:30:46.173Z,100202.81
2019-02-25T06:33:17.111Z,100203.16
2019-02-25T06:35:47.972Z,100207.94
2019-02-25T06:38:18.827Z,100203.42
2019-02-25T06:40:49.711Z,100204.19
2019-02-25T06:43:20.583Z,100209.95
2019-02-25T06:45:51.459Z,100206.31
2019-02-25T06:48:22.310Z,100197.61
2019-02-25T06:50:53.198Z,100201.41
2019-02-25T06:53:24.059Z,100209.70
2019-02-25T06:55:54.933Z,100220.50
2019-02-25T06:58:25.886Z,100213.32
2019-02-25T07:00:56.767Z,100210.88
2019-02-25T07:03:27.608Z,100204.64
2019-02-25T07:06:02.935Z,100211.63
2019-02-25T07:08:35.434Z,100209.38
2019-02-25T07:11:10.915Z,100200.78
2019-02-25T07:13:43.413Z,100200.10
2019-02-25T07:16:21.973Z,100191.42
2019-02-25T07:19:10.438Z,100198.50
2019-02-25T07:21:45.622Z,100195.73
2019-02-25T07:24:23.837Z,100195.58
2019-02-25T07:27:04.766Z,100194.86
2019-02-25T07:29:52.251Z,100201.44
2019-02-25T07:32:27.680Z,100190.86
2019-02-25T07:35:00.598Z,100188.70
2019-02-25T07:37:44.836Z,100191.04
2019-02-25T07:40:33.104Z,100193.02
2019-02-25T07:43:11.010Z,100195.36
2019-02-25T07:45:49.516Z,100200.80
2019-02-25T07:48:22.004Z,100201.07
2019-02-25T07:51:03.464Z,100204.20
2019-02-25T07:53:47.852Z,100212.96
2019-02-25T07:56:23.010Z,100214.98
2019-02-25T07:58:55.530Z,100210.18
2019-02-25T08:01:28.041Z,100215.06
2019-02-25T08:04:15.412Z,100222.78
2019-02-25T08:06:47.920Z,100226.19
2019-02-25T08:09:26.406Z,100213.44
2019-02-25T08:12:10.814Z,100215.80
2019-02-25T08:14:43.330Z,100211.41
2019-02-25T08:17:32.004Z,100203.75
2019-02-25T08:20:06.926Z,100202.17
2019-02-25T08:22:48.376Z,100204.95
2019-02-25T08:25:23.346Z,100205.39
2019-02-25T08:28:01.498Z,100199.59
2019-02-25T08:30:36.968Z,100200.59
2019-02-25T08:33:21.036Z,100205.86
2019-02-25T08:36:11.522Z,100205.11
2019-02-25T08:38:49.443Z,100196.77
2019-02-25T08:41:24.580Z,100195.98
2019-02-25T08:44:00.014Z,100193.58
2019-02-25T08:46:41.576Z,100189.25
2019-02-25T08:49:14.210Z,100191.66
2019-02-25T08:51:45.158Z,100197.87
2019-02-25T08:54:16.152Z,100194.03
2019-02-25T08:56:47.016Z,100189.64
2019-02-25T08:59:17.942Z,100198.58
2019-02-25T09:01:48.800Z,100194.59
2019-02-25T09:04:19.644Z,100193.98
2019-02-25T09:06:50.509Z,100190.17
2019-02-25T09:09:21.728Z,100185.27
2019-02-25T09:11:52.708Z,100188.66
2019-02-25T09:14:23.653Z,100184.05
2019-02-25T09:16:54.536Z,100181.12
2019-02-25T09:19:25.444Z,100198.88
2019-02-25T09:21:56.431Z,100196.25
2019-02-25T09:24:27.305Z,100195.16
2019-02-25T09:26:58.156Z,100189.27
2019-02-25T09:29:29.037Z,100182.16
2019-02-25T09:31:59.906Z,100183.27
2019-02-25T09:34:30.809Z,100180.94
2019-02-25T09:37:01.671Z,100175.59
2019-02-25T09:39:32.525Z,100176.25
2019-02-25T09:42:03.377Z,100170.16
2019-02-25T09:44:34.235Z,100169.59
2019-02-25T09:47:05.289Z,100176.06
2019-02-25T09:49:36.087Z,100183.92
2019-02-25T09:52:06.933Z,100178.66
2019-02-25T09:54:37.821Z,100175.92
2019-02-25T09:57:08.679Z,100171.98
2019-02-25T09:59:39.569Z,100177.06
2019-02-25T10:02:10.457Z,100174.07
2019-02-25T10:04:41.335Z,100169.37
2019-02-25T10:07:12.265Z,100176.45
2019-02-25T10:09:43.215Z,100165.68
2019-02-25T10:12:14.107Z,100162.19
2019-02-25T10:14:44.985Z,100154.02
2019-02-25T10:17:23.561Z,100157.39
2019-02-25T10:19:48.420Z,100155.05
2019-02-25T10:22:19.285Z,100145.70
2019-02-25T10:24:50.161Z,100148.59
2019-02-25T10:27:21.001Z,100146.75
2019-02-25T10:29:51.863Z,100145.18
2019-02-25T10:32:23.647Z,100141.77
2019-02-25T10:34:55.288Z,100141.83
2019-02-25T10:37:26.159Z,100143.34
2019-02-25T10:39:57.022Z,100145.92
2019-02-25T10:42:29.505Z,100141.56
2019-02-25T10:45:02.550Z,100136.98
2019-02-25T10:47:33.179Z,100147.98
2019-02-25T10:50:05.751Z,100140.12
2019-02-25T10:52:38.765Z,100137.11
2019-02-25T10:55:24.919Z,100132.73
2019-02-25T10:57:57.593Z,100139.65
2019-02-25T11:00:28.752Z,100129.33
2019-02-25T11:02:59.597Z,100134.45
2019-02-25T11:05:30.749Z,100134.27
2019-02-25T11:08:05.196Z,100135.06
2019-02-25T11:10:40.211Z,100135.06
2019-02-25T11:13:11.133Z,100130.88
2019-02-25T11:15:44.008Z,100139.51
2019-02-25T11:18:14.536Z,100132.62
2019-02-25T11:20:45.403Z,100131.05
2019-02-25T11:23:17.600Z,100129.34
2019-02-25T11:25:48.851Z,100127.86
2019-02-25T11:28:25.453Z,100127.34
2019-02-25T11:30:53.811Z,100126.00
2019-02-25T11:33:27.106Z,100124.11
2019-02-25T11:35:57.414Z,100108.08
2019-02-25T11:38:30.343Z,100100.59
2019-02-25T11:41:02.025Z,100102.05
2019-02-25T11:43:33.395Z,100094.09
2019-02-25T11:46:04.333Z,100099.83
2019-02-25T11:48:35.224Z,100095.17
2019-02-25T11:51:06.147Z,100097.04
2019-02-25T11:53:37.011Z,100093.58
2019-02-25T11:56:07.971Z,100081.62
2019-02-25T11:58:38.825Z,100079.30
2019-02-25T12:01:09.827Z,100085.39
2019-02-25T12:03:40.672Z,100081.36
2019-02-25T12:06:11.549Z,100083.28
2019-02-25T12:08:42.410Z,100076.59
2019-02-25T12:11:13.312Z,100075.52
2019-02-25T12:13:44.168Z,100073.01
2019-02-25T12:16:15.127Z,100073.89
2019-02-25T12:18:45.997Z,100073.97
2019-02-25T12:21:16.863Z,100070.92
2019-02-25T12:23:47.726Z,100058.91
2019-02-25T12:26:18.669Z,100057.19
2019-02-25T12:28:49.584Z,100048.52
2019-02-25T12:31:20.442Z,100055.13
2019-02-25T12:33:51.444Z,100044.30
2019-02-25T12:36:22.292Z,100045.08
2019-02-25T12:38:53.208Z,100039.75
2019-02-25T12:41:24.114Z,100043.03
2019-02-25T12:43:55.080Z,100038.38
2019-02-25T12:46:25.894Z,100035.94
2019-02-25T12:48:56.868Z,100037.05
2019-02-25T12:51:27.720Z,100036.09
2019-02-25T12:53:58.691Z,100015.50
2019-02-25T12:56:29.618Z,100015.50
2019-02-25T12:59:00.606Z,100000.25
2019-02-25T13:01:31.473Z,99990.54
2019-02-25T13:04:02.408Z,99995.60
2019-02-25T13:06:33.364Z,99994.64
2019-02-25T13:09:06.857Z,99974.88
2019-02-25T13:11:39.874Z,99979.64
2019-02-25T13:14:10.701Z,99964.67
2019-02-25T13:16:41.634Z,99964.67
2019-02-25T13:19:12.546Z,99955.44
2019-02-25T13:21:43.484Z,99963.80
2019-02-25T13:24:14.405Z,99963.80
2019-02-25T13:26:45.351Z,99960.78
2019-02-25T13:29:16.271Z,99945.56
2019-02-25T13:31:47.220Z,99950.22
2019-02-25T13:34:18.232Z,99936.81
2019-02-25T13:36:49.160Z,99933.14
2019-02-25T13:39:20.150Z,99927.09
2019-02-25T13:41:51.119Z,99917.36
2019-02-25T13:44:22.064Z,99913.83
2019-02-25T13:46:53.082Z,99910.33
2019-02-25T13:49:23.985Z,99910.33
2019-02-25T13:51:54.838Z,99915.75
2019-02-25T13:54:25.763Z,99907.67
2019-02-25T13:56:56.776Z,99892.82
2019-02-25T13:59:27.984Z,99892.13
2019-02-25T14:01:58.852Z,99888.84
2019-02-25T14:04:29.778Z,99895.46
2019-02-25T14:07:00.624Z,99890.07
2019-02-25T14:09:31.546Z,99900.08
2019-02-25T14:12:02.551Z,99891.20
2019-02-25T14:14:33.436Z,99883.32
2019-02-25T14:17:04.273Z,99883.83
2019-02-25T14:19:35.330Z,99884.05
2019-02-25T14:22:06.436Z,99881.14
2019-02-25T14:24:38.546Z,99881.28
2019-02-25T14:27:11.762Z,99861.63
2019-02-25T14:29:44.682Z,99861.63
2019-02-25T14:32:15.616Z,99872.07
2019-02-25T14:34:46.544Z,99875.52
2019-02-25T14:37:19.491Z,99872.69
2019-02-25T14:39:53.732Z,99867.41
2019-02-25T14:42:25.672Z,99861.11
2019-02-25T14:44:56.299Z,99859.05
2019-02-25T14:47:34.789Z,99854.82
2019-02-25T14:50:00.998Z,99851.77
2019-02-25T14:52:31.934Z,99857.67
2019-02-25T14:55:04.911Z,99849.83
2019-02-25T14:57:35.750Z,99853.30
2019-02-25T15:00:15.308Z,99849.82
2019-02-25T15:02:48.028Z,99855.61
2019-02-25T15:05:19.848Z,99854.06
2019-02-25T15:07:53.243Z,99851.49
2019-02-25T15:10:29.034Z,99856.69
2019-02-25T15:12:59.214Z,99855.91
2019-02-25T15:15:29.597Z,99849.45
2019-02-25T15:18:00.860Z,99841.69
2019-02-25T15:20:31.789Z,99842.50
2019-02-25T15:23:02.798Z,99835.24
2019-02-25T15:25:35.857Z,99832.27
2019-02-25T15:28:09.257Z,99828.30
2019-02-25T15:30:38.812Z,99822.22
2019-02-25T15:33:09.997Z,99824.11
2019-02-25T15:35:41.678Z,99825.91
2019-02-25T15:38:13.703Z,99828.47
2019-02-25T15:40:44.655Z,99832.02
2019-02-25T15:43:18.105Z,99829.22
2019-02-25T15:45:48.477Z,99832.21
2019-02-25T15:48:21.567Z,99833.16
2019-02-25T15:50:55.498Z,99836.64
2019-02-25T15:53:27.341Z,99830.64
2019-02-25T15:56:01.034Z,99828.97
2019-02-25T15:58:30.855Z,99832.30
2019-02-25T16:01:01.789Z,99829.70
2019-02-25T16:03:35.140Z,99835.67
2019-02-25T16:06:08.348Z,99834.08
2019-02-25T16:08:39.539Z,99836.05
2019-02-25T16:11:12.030Z,99839.03
2019-02-25T16:13:43.224Z,99843.68
2019-02-25T16:16:14.735Z,99845.11
2019-02-25T16:18:45.651Z,99847.67
2019-02-25T16:21:16.561Z,99851.02
2019-02-25T16:23:47.457Z,99856.42
2019-02-25T16:26:20.051Z,99861.23
2019-02-25T16:28:53.204Z,99866.64
2019-02-25T16:31:24.099Z,99864.55
2019-02-25T16:33:55.499Z,99875.03
2019-02-25T16:36:28.298Z,99869.72
2019-02-25T16:39:01.761Z,99873.06
2019-02-25T16:41:36.225Z,99874.93
2019-02-25T16:44:06.819Z,99869.46
2019-02-25T16:46:39.404Z,99873.43
2019-02-25T16:49:10.557Z,99873.51
2019-02-25T16:51:41.451Z,99871.29
2019-02-25T16:54:13.576Z,99867.89
2019-02-25T16:56:45.097Z,99862.69
2019-02-25T16:59:17.850Z,99868.23
2019-02-25T17:01:48.512Z,99864.17
2019-02-25T17:04:22.644Z,99870.52
2019-02-25T17:06:53.543Z,99868.07
2019-02-25T17:09:25.306Z,99872.14
2019-02-25T17:11:57.953Z,99878.81
2019-02-25T17:14:28.682Z,99878.73
2019-02-25T17:16:59.561Z,99886.42
2019-02-25T17:19:30.550Z,99885.02
2019-02-25T17:22:02.457Z,99896.98
2019-02-25T17:24:34.893Z,99891.09
2019-02-25T17:27:08.962Z,99887.75
2019-02-25T17:29:39.735Z,99888.64
2019-02-25T17:32:11.184Z,99891.22
2019-02-25T17:34:43.737Z,99895.17
2019-02-25T17:37:15.413Z,99888.74
2019-02-25T17:39:47.393Z,99889.70
2019-02-25T17:42:19.742Z,99890.58
2019-02-25T17:44:53.310Z,99888.95
2019-02-25T17:47:24.413Z,99890.81
2019-02-25T17:49:56.055Z,99893.52
2019-02-25T17:52:28.173Z,99900.17
2019-02-25T17:54:59.042Z,99897.23
2019-02-25T17:57:32.245Z,99898.16
2019-02-25T18:00:03.232Z,99895.74
2019-02-25T18:02:35.618Z,99900.63
2019-02-25T18:05:09.410Z,99890.77
2019-02-25T18:07:42.024Z,99903.81
2019-02-25T18:10:14.068Z,99904.28
2019-02-25T18:12:45.003Z,99907.33
2019-02-25T18:15:30.555Z,99905.67
2019-02-25T18:18:02.504Z,99907.88
2019-02-25T18:20:33.478Z,99902.74
2019-02-25T18:23:05.445Z,99908.84
2019-02-25T18:25:37.766Z,99904.13
2019-02-25T18:28:10.836Z,99900.69
2019-02-25T18:30:41.826Z,99897.23
2019-02-25T18:33:12.986Z,99897.26
2019-02-25T18:35:45.630Z,99901.59
2019-02-25T18:38:16.533Z,99905.48
2019-02-25T18:40:47.442Z,99899.86
2019-02-25T18:43:20.063Z,99904.61
2019-02-25T18:45:51.077Z,99898.56
2019-02-25T18:48:23.275Z,99903.30
2019-02-25T18:50:57.175Z,99904.16
2019-02-25T18:53:27.463Z,99902.41
2019-02-25T18:55:58.468Z,99898.55
2019-02-25T18:58:31.095Z,99905.43
2019-02-25T19:01:02.250Z,99901.13
2019-02-25T19:03:35.254Z,99907.98
2019-02-25T19:06:05.852Z,99909.23
2019-02-25T19:08:36.879Z,99916.10
2019-02-25T19:11:07.827Z,99918.67
2019-02-25T19:13:38.764Z,99916.50
2019-02-25T19:16:10.043Z,99908.26
2019-02-25T19:18:42.942Z,99920.70
2019-02-25T19:21:13.875Z,99927.93
2019-02-25T19:23:46.436Z,99929.12
2019-02-25T19:26:19.550Z,99927.82
2019-02-25T19:28:52.091Z,99932.50
2019-02-25T19:31:23.917Z,99928.55
2019-02-25T19:33:55.330Z,99930.61
2019-02-25T19:36:29.423Z,99928.88
2019-02-25T19:38:58.797Z,99929.26
2019-02-25T19:41:29.982Z,99927.48
2019-02-25T19:44:01.971Z,99927.78
2019-02-25T19:46:33.416Z,99934.17
2019-02-25T19:49:04.414Z,99935.77
2019-02-25T19:51:35.365Z,99936.16
2019-02-25T19:54:06.988Z,99934.42
2019-02-25T19:56:38.897Z,99930.88
2019-02-25T19:59:09.999Z,99925.29
2019-02-25T20:01:40.849Z,99929.13
2019-02-25T20:04:13.977Z,99930.30
2019-02-25T20:06:44.830Z,99922.00
2019-02-25T20:09:18.128Z,99933.16
2019-02-25T20:11:48.980Z,99930.06
2019-02-25T20:14:19.903Z,99926.98
2019-02-25T20:16:50.769Z,99929.57
2019-02-25T20:19:21.601Z,99931.24
2019-02-25T20:21:53.076Z,99938.52
2019-02-25T20:24:25.634Z,99932.37
2019-02-25T20:26:59.709Z,99931.84
2019-02-25T20:29:29.467Z,99932.25
2019-02-25T20:32:00.446Z,99931.78
2019-02-25T20:34:32.089Z,99929.16
2019-02-25T20:37:03.973Z,99937.20
2019-02-25T20:39:35.999Z,99929.70
2019-02-25T20:42:07.434Z,99931.37
2019-02-25T20:44:38.385Z,99923.99
2019-02-25T20:47:09.231Z,99919.20
2019-02-25T20:49:40.079Z,99924.39
2019-02-25T20:52:11.774Z,99925.59
2019-02-25T20:54:45.414Z,99928.96
2019-02-25T20:57:16.929Z,99920.30
2019-02-25T20:59:49.287Z,99918.03
2019-02-25T21:02:21.643Z,99927.74
2019-02-25T21:04:53.688Z,99923.51
2019-02-25T21:07:25.127Z,99913.80
2019-02-25T21:09:58.636Z,99911.09
2019-02-25T21:12:29.355Z,99922.57
2019-02-25T21:15:00.384Z,99929.08
2019-02-25T21:17:33.034Z,99920.68
2019-02-25T21:20:07.089Z,99928.08
2019-02-25T21:22:38.570Z,99928.82
2019-02-25T21:25:11.560Z,99931.78
2019-02-25T21:27:42.424Z,99933.06
2019-02-25T21:30:15.968Z,99935.06
2019-02-25T21:32:49.278Z,99940.11
2019-02-25T21:35:23.503Z,99932.45
2019-02-25T21:37:54.657Z,99934.13
2019-02-25T21:40:27.820Z,99935.34
2019-02-25T21:42:58.389Z,99937.91
2019-02-25T21:45:32.084Z,99945.15
2019-02-25T21:48:04.687Z,99944.34
2019-02-25T21:50:36.028Z,99941.67
2019-02-25T21:53:07.587Z,99946.64
2019-02-25T21:55:39.414Z,99938.40
2019-02-25T21:58:10.278Z,99942.19
2019-02-25T22:00:41.112Z,99938.59
2019-02-25T22:03:13.195Z,99947.98
2019-02-25T22:05:44.613Z,99937.20
2019-02-25T22:08:15.458Z,99942.76
2019-02-25T22:10:46.332Z,99942.11
2019-02-25T22:13:18.410Z,99943.66
2019-02-25T22:15:49.776Z,99947.11
2019-02-25T22:18:20.626Z,99945.25
2019-02-25T22:20:51.595Z,99937.88
2019-02-25T22:23:25.828Z,99937.38
2019-02-25T22:25:54.951Z,99940.44
2019-02-25T22:28:25.805Z,99943.72
2019-02-25T22:30:56.669Z,99942.23
2019-02-25T22:33:28.097Z,99941.73
2019-02-25T22:36:00.058Z,99944.31
2019-02-25T22:38:30.912Z,99945.59
2019-02-25T22:41:02.286Z,99944.60
2019-02-25T22:43:33.174Z,99938.75
2019-02-25T22:46:05.427Z,99932.08
2019-02-25T22:48:37.660Z,99936.12
2019-02-25T22:51:09.180Z,99940.76
2019-02-25T22:53:40.048Z,99937.56
2019-02-25T22:56:13.345Z,99927.98
2019-02-25T22:58:43.438Z,99924.83
2019-02-25T23:01:17.468Z,99922.61
2019-02-25T23:03:47.994Z,99928.48
2019-02-25T23:06:21.362Z,99926.66
2019-02-25T23:08:53.389Z,99936.46
2019-02-25T23:11:26.462Z,99942.01
2019-02-25T23:13:57.389Z,99940.86
2019-02-25T23:16:28.307Z,99944.75
2019-02-25T23:18:59.212Z,99952.23
2019-02-25T23:21:31.447Z,99950.06
2019-02-25T23:24:03.052Z,99948.09
2019-02-25T23:26:35.168Z,99947.72
2019-02-25T23:29:06.033Z,99956.97
2019-02-25T23:31:36.887Z,99953.31
2019-02-25T23:34:10.128Z,99948.05
2019-02-25T23:36:43.025Z,99948.18
2019-02-25T23:39:12.935Z,99949.01
2019-02-25T23:41:44.384Z,99951.02
2019-02-25T23:44:17.452Z,99950.70
2019-02-25T23:46:48.897Z,99946.11
2019-02-25T23:49:27.047Z,99941.61
2019-02-25T23:51:52.303Z,99938.11
2019-02-25T23:54:25.334Z,99937.61
2019-02-25T23:56:57.902Z,99939.66
2019-02-25T23:59:28.243Z,99938.53
